Time;durP1;ratioP1;P1;durP2;ratioP2;P2;SDS_P1;SDS_P2;PMS_P1;PMS_P2;Temp;Humidity;BMP_temperature;BMP_pressure;BME280_temperature;BME280_humidity;BME280_pressure;Samples;Min_cycle;Max_cycle;Signal;HPM_P1;HPM_P2
2022/12/19 00:00:07;;;;;;;;;;;;;;;6.26;82.65;101678.25;4934556;29;20427;-90
2022/12/19 00:02:44;;;;;;;;;;;;;;;6.29;82.51;101678.34;4951649;29;20380;-93
2022/12/19 00:05:17;;;;;;;;;;;;;;;6.55;81.76;101679.25;4953652;29;19918;-92
2022/12/19 00:07:53;;;;;;;;;;;;;;;6.60;80.75;101674.16;4952172;28;19989;-92
2022/12/19 00:10:19;;;;;;;;;;;;;;;6.86;80.86;101669.75;4933214;29;20403;-92
2022/12/19 00:12:46;;;;;;;;;;;;;;;6.45;81.63;101678.00;4953826;28;19926;-91
2022/12/19 00:15:18;;;;;;;;;;;;;;;6.05;82.12;101683.63;4953739;29;19918;-90
2022/12/19 00:17:45;;;;;;;;;;;;;;;5.88;81.96;101686.50;4935544;29;19925;-91
2022/12/19 00:20:20;;;;;;;;;;;;;;;6.20;81.53;101683.28;4951883;29;19949;-91
2022/12/19 00:22:55;;;;;;;;;;;;;;;6.48;80.30;101678.97;4953405;29;19918;-92
2022/12/19 00:25:29;;;;;;;;;;;;;;;6.20;81.43;101686.78;4952864;29;19918;-91
2022/12/19 00:28:10;;;;;;;;;;;;;;;5.96;81.37;101692.00;4952348;29;19918;-91
2022/12/19 00:30:38;;;;;;;;;;;;;;;5.67;82.41;101689.25;4935485;29;20318;-91
2022/12/19 00:33:08;;;;;;;;;;;;;;;5.62;80.76;101684.66;4952522;29;19915;-91
2022/12/19 00:35:41;;;;;;;;;;;;;;;5.78;80.20;101692.25;4953511;29;19918;-91
2022/12/19 00:38:13;;;;;;;;;;;;;;;5.77;79.82;101698.31;4953907;29;19919;-90
2022/12/19 00:40:49;;;;;;;;;;;;;;;5.66;80.19;101700.53;4934516;29;20388;-90
2022/12/19 00:43:29;;;;;;;;;;;;;;;5.71;79.54;101698.09;4953778;29;19950;-91
2022/12/19 00:46:01;;;;;;;;;;;;;;;5.64;80.61;101703.94;4952042;29;19910;-91
2022/12/19 00:48:37;;;;;;;;;;;;;;;5.52;79.48;101707.00;4953290;29;19921;-90
2022/12/19 00:51:19;;;;;;;;;;;;;;;5.64;79.60;101710.09;4952091;29;20021;-91
2022/12/19 00:53:53;;;;;;;;;;;;;;;5.50;79.37;101704.31;4953848;28;19918;-91
2022/12/19 00:56:23;;;;;;;;;;;;;;;5.38;78.94;101704.75;4953327;29;19922;-91
2022/12/19 00:59:00;;;;;;;;;;;;;;;5.40;78.36;101699.56;4953698;29;19925;-93
2022/12/19 01:01:33;;;;;;;;;;;;;;;5.38;78.52;101698.63;4952990;29;20378;-90
2022/12/19 01:04:12;;;;;;;;;;;;;;;5.53;79.47;101704.44;4952016;29;20009;-91
2022/12/19 01:06:44;;;;;;;;;;;;;;;5.54;78.33;101706.22;4968285;28;20009;-93
2022/12/19 01:09:18;;;;;;;;;;;;;;;5.43;78.35;101706.66;4950587;28;19936;-90
2022/12/19 01:14:33;;;;;;;;;;;;;;;5.45;79.31;101699.75;4952702;29;20400;-91
2022/12/19 01:17:03;;;;;;;;;;;;;;;5.48;78.88;101705.97;4951525;29;20337;-90
2022/12/19 01:19:34;;;;;;;;;;;;;;;5.49;79.01;101702.53;4952835;29;19981;-90
2022/12/19 01:22:03;;;;;;;;;;;;;;;5.48;79.20;101694.63;4953304;29;19918;-92
2022/12/19 01:24:36;;;;;;;;;;;;;;;5.34;78.89;101691.47;4950141;28;19918;-93
2022/12/19 01:27:08;;;;;;;;;;;;;;;5.56;79.76;101704.56;4952819;29;19983;-92
2022/12/19 01:29:39;;;;;;;;;;;;;;;5.41;79.25;101698.75;4953597;29;20057;-91
2022/12/19 01:32:22;;;;;;;;;;;;;;;;;;;;;
2022/12/19 01:34:51;;;;;;;;;;;;;;;5.46;79.90;101697.19;4952663;29;19921;-90
2022/12/19 01:37:18;;;;;;;;;;;;;;;5.46;79.99;101691.94;4952847;29;19918;-90
2022/12/19 01:39:58;;;;;;;;;;;;;;;5.27;79.29;101690.38;4952609;29;19923;-91
2022/12/19 01:42:38;;;;;;;;;;;;;;;5.46;79.68;101694.56;4950050;29;19914;-89
2022/12/19 01:45:12;;;;;;;;;;;;;;;5.60;79.78;101694.19;4949947;29;19918;-92
2022/12/19 01:47:54;;;;;;;;;;;;;;;;;;;;;
2022/12/19 01:50:26;;;;;;;;;;;;;;;5.28;78.92;101701.72;4952168;29;19915;-91
2022/12/19 01:53:03;;;;;;;;;;;;;;;5.24;78.92;101703.31;4952325;29;19925;-89
2022/12/19 01:55:34;;;;;;;;;;;;;;;5.46;79.10;101699.81;4952561;29;19976;-89
2022/12/19 01:58:14;;;;;;;;;;;;;;;5.31;78.48;101694.84;4950681;29;19918;-92
2022/12/19 02:00:50;;;;;;;;;;;;;;;5.15;78.11;101700.34;4952821;29;19914;-90
2022/12/19 02:03:25;;;;;;;;;;;;;;;5.25;78.59;101701.59;4935095;29;20029;-90
2022/12/19 02:05:52;;;;;;;;;;;;;;;5.39;79.22;101705.63;4952789;29;19922;-92
2022/12/19 02:08:36;;;;;;;;;;;;;;;5.49;79.44;101699.91;4952173;28;19914;-92
2022/12/19 02:11:17;;;;;;;;;;;;;;;5.31;78.65;101705.31;4952734;29;19914;-92
2022/12/19 02:13:47;;;;;;;;;;;;;;;5.34;78.74;101704.56;4952977;29;19982;-90
2022/12/19 02:19:37;;;;;;;;;;;;;;;5.23;79.37;101708.50;4952227;29;19929;-91
2022/12/19 02:22:13;;;;;;;;;;;;;;;5.22;79.51;101709.31;4946156;29;19927;-91
2022/12/19 02:25:00;;;;;;;;;;;;;;;5.24;78.17;101713.78;4950854;29;19914;-92
2022/12/19 02:27:52;;;;;;;;;;;;;;;5.09;78.14;101713.19;4952359;29;19918;-91
2022/12/19 02:30:41;;;;;;;;;;;;;;;5.02;78.79;101726.03;4951561;29;19922;-92
2022/12/19 02:33:24;;;;;;;;;;;;;;;4.89;78.54;101715.91;4952220;29;19918;-91
2022/12/19 02:35:58;;;;;;;;;;;;;;;4.83;79.47;101726.09;4952041;28;19969;-90
2022/12/19 02:38:39;;;;;;;;;;;;;;;4.85;81.32;101727.09;4955606;29;20393;-90
2022/12/19 02:41:28;;;;;;;;;;;;;;;4.82;82.46;101738.28;4955544;29;19925;-90
2022/12/19 02:44:01;;;;;;;;;;;;;;;4.79;82.31;101738.16;4953657;29;19957;-90
2022/12/19 02:46:28;;;;;;;;;;;;;;;4.67;80.76;101735.06;4952220;29;19914;-89
2022/12/19 02:49:08;;;;;;;;;;;;;;;4.39;81.27;101744.34;4954292;29;20024;-89
2022/12/19 02:51:38;;;;;;;;;;;;;;;4.36;82.45;101743.31;4954789;29;19918;-89
2022/12/19 02:54:09;;;;;;;;;;;;;;;4.22;82.72;101753.19;4954113;29;19981;-91
2022/12/19 02:56:49;;;;;;;;;;;;;;;4.21;82.50;101754.00;4954773;29;19929;-90
2022/12/19 02:59:23;;;;;;;;;;;;;;;4.22;82.27;101751.44;4954740;29;19918;-92
2022/12/19 03:02:09;;;;;;;;;;;;;;;4.19;82.08;101758.28;4951787;29;19915;-89
2022/12/19 03:04:43;;;;;;;;;;;;;;;4.25;82.87;101767.25;4952903;29;19918;-90
2022/12/19 03:07:26;;;;;;;;;;;;;;;4.28;83.15;101766.50;4953558;29;19925;-90
2022/12/19 03:10:16;;;;;;;;;;;;;;;4.23;83.47;101768.91;4952655;29;20356;-88
2022/12/19 03:12:50;;;;;;;;;;;;;;;4.19;83.43;101763.50;4932389;29;19974;-88
2022/12/19 03:15:18;;;;;;;;;;;;;;;4.11;84.54;101771.88;4935206;29;19919;-88
2022/12/19 03:17:48;;;;;;;;;;;;;;;4.08;85.13;101781.31;4934521;29;19922;-88
2022/12/19 03:20:27;;;;;;;;;;;;;;;4.09;85.27;101783.06;4935909;29;19978;-88
2022/12/19 03:23:05;;;;;;;;;;;;;;;3.96;85.84;101783.34;4954082;29;19925;-89
2022/12/19 03:25:43;;;;;;;;;;;;;;;3.87;85.93;101773.38;4953572;29;19918;-89
2022/12/19 03:28:12;;;;;;;;;;;;;;;3.79;86.69;101782.59;4936175;29;19914;-89
2022/12/19 03:30:52;;;;;;;;;;;;;;;3.84;86.67;101786.28;4947952;29;19930;-90
2022/12/19 03:33:28;;;;;;;;;;;;;;;3.77;86.70;101785.13;4933566;29;19911;-88
2022/12/19 03:35:57;;;;;;;;;;;;;;;3.83;85.79;101788.03;4943586;29;19961;-88
2022/12/19 03:38:26;;;;;;;;;;;;;;;3.82;85.11;101790.56;4952951;29;19925;-88
2022/12/19 03:40:55;;;;;;;;;;;;;;;3.82;85.13;101791.44;4954127;29;19922;-91
2022/12/19 03:43:33;;;;;;;;;;;;;;;3.78;85.11;101799.06;4952170;29;20061;-91
2022/12/19 03:46:00;;;;;;;;;;;;;;;3.79;84.30;101804.34;4953782;29;19910;-90
2022/12/19 03:48:29;;;;;;;;;;;;;;;3.81;84.45;101807.94;4953099;28;19918;-92
2022/12/19 03:51:14;;;;;;;;;;;;;;;3.74;84.21;101809.38;4953756;29;19957;-93
2022/12/19 03:54:00;;;;;;;;;;;;;;;3.84;84.28;101809.78;4953638;29;19921;-91
2022/12/19 03:56:41;;;;;;;;;;;;;;;3.94;83.54;101817.25;4953863;29;20408;-93
2022/12/19 03:59:19;;;;;;;;;;;;;;;3.99;83.95;101815.72;4953725;29;20024;-92
2022/12/19 04:01:47;;;;;;;;;;;;;;;4.00;82.94;101832.28;4935544;29;19918;-91
2022/12/19 04:04:15;;;;;;;;;;;;;;;4.20;82.43;101827.97;4936043;29;19922;-93
2022/12/19 04:06:48;;;;;;;;;;;;;;;4.24;81.92;101825.56;4932303;29;19922;-93
2022/12/19 04:09:21;;;;;;;;;;;;;;;4.29;82.66;101828.38;4932547;29;19965;-94
2022/12/19 04:11:54;;;;;;;;;;;;;;;4.53;82.24;101822.47;4934947;29;20042;-94
2022/12/19 04:14:36;;;;;;;;;;;;;;;4.52;81.89;101828.50;4932725;29;19914;-95
2022/12/19 04:17:23;;;;;;;;;;;;;;;;;;;;;
2022/12/19 04:20:03;;;;;;;;;;;;;;;4.62;82.66;101823.75;4953433;29;20377;-94
2022/12/19 04:22:33;;;;;;;;;;;;;;;4.76;82.49;101820.84;4951997;29;19918;-94
2022/12/19 04:25:01;;;;;;;;;;;;;;;4.87;82.54;101829.13;4951502;29;19922;-93
2022/12/19 04:27:39;;;;;;;;;;;;;;;4.83;82.65;101820.25;4951252;29;19921;-94
2022/12/19 04:30:23;;;;;;;;;;;;;;;;;;;;;
2022/12/19 04:32:51;;;;;;;;;;;;;;;4.86;82.11;101817.75;4951170;29;19914;-93
2022/12/19 04:35:23;;;;;;;;;;;;;;;4.86;82.53;101824.72;4933182;29;20313;-92
2022/12/19 04:37:55;;;;;;;;;;;;;;;4.92;81.81;101823.25;4952152;29;19937;-91
2022/12/19 04:40:36;;;;;;;;;;;;;;;4.92;81.25;101823.25;4950394;28;19962;-94
2022/12/19 04:43:06;;;;;;;;;;;;;;;4.66;81.40;101824.75;4966705;28;20013;-93
2022/12/19 04:45:50;;;;;;;;;;;;;;;4.65;80.97;101823.00;4949809;29;19957;-93
2022/12/19 04:48:38;;;;;;;;;;;;;;;4.75;81.29;101824.28;4947535;29;19918;-94
2022/12/19 04:51:08;;;;;;;;;;;;;;;4.90;80.85;101834.50;4950538;29;19945;-92
2022/12/19 04:53:40;;;;;;;;;;;;;;;5.02;79.89;101832.41;4932986;29;19925;-93
2022/12/19 04:56:16;;;;;;;;;;;;;;;5.07;79.23;101832.59;4949084;29;19918;-94
2022/12/19 04:58:42;;;;;;;;;;;;;;;5.06;79.11;101829.06;4948856;28;19925;-94
2022/12/19 05:01:18;;;;;;;;;;;;;;;5.11;78.99;101830.16;4932010;29;19918;-94
2022/12/19 05:04:04;;;;;;;;;;;;;;;;;;;;;
2022/12/19 05:06:32;;;;;;;;;;;;;;;5.09;79.30;101844.88;4950061;29;19961;-92
2022/12/19 05:09:07;;;;;;;;;;;;;;;5.05;79.23;101849.94;4931887;29;20074;-93
2022/12/19 05:11:38;;;;;;;;;;;;;;;5.02;79.35;101845.47;4950876;29;20050;-93
2022/12/19 05:14:09;;;;;;;;;;;;;;;5.06;78.82;101855.22;4951612;29;19918;-92
2022/12/19 05:16:36;;;;;;;;;;;;;;;4.95;78.15;101860.00;4931850;29;19950;-92
2022/12/19 05:19:07;;;;;;;;;;;;;;;5.07;78.26;101864.88;4936085;29;19942;-94
2022/12/19 05:21:37;;;;;;;;;;;;;;;5.17;77.42;101866.13;4952302;29;19922;-90
2022/12/19 05:24:16;;;;;;;;;;;;;;;4.90;77.45;101864.16;4952974;29;19926;-89
2022/12/19 05:26:48;;;;;;;;;;;;;;;5.12;77.33;101862.44;4932017;29;20305;-94
2022/12/19 05:29:17;;;;;;;;;;;;;;;4.95;76.94;101872.19;4947702;29;19919;-93
2022/12/19 05:31:55;;;;;;;;;;;;;;;4.99;76.84;101869.78;4949069;29;20437;-93
2022/12/19 05:34:24;;;;;;;;;;;;;;;5.07;76.40;101879.69;4935333;29;19922;-93
2022/12/19 05:37:01;;;;;;;;;;;;;;;5.08;76.11;101881.44;4953757;29;19918;-94
2022/12/19 05:39:30;;;;;;;;;;;;;;;5.06;75.84;101885.72;4931955;29;19923;-93
2022/12/19 05:42:02;;;;;;;;;;;;;;;5.02;75.47;101885.59;4947302;29;20045;-94
2022/12/19 05:44:29;;;;;;;;;;;;;;;5.09;75.40;101885.84;4947999;29;19961;-91
2022/12/19 05:46:56;;;;;;;;;;;;;;;5.02;75.25;101879.50;4930603;29;19929;-92
2022/12/19 05:49:25;;;;;;;;;;;;;;;5.02;75.31;101880.38;4936977;29;19929;-92
2022/12/19 05:51:51;;;;;;;;;;;;;;;5.13;75.33;101880.81;4932204;29;19927;-93
2022/12/19 05:54:17;;;;;;;;;;;;;;;5.24;74.61;101886.50;4947221;29;19922;-90
2022/12/19 05:56:43;;;;;;;;;;;;;;;5.20;74.59;101888.13;4944457;29;19926;-93
2022/12/19 05:59:11;;;;;;;;;;;;;;;5.30;74.69;101884.16;4949491;29;19914;-91
2022/12/19 06:01:39;;;;;;;;;;;;;;;5.25;74.32;101888.31;4945574;29;19922;-94
2022/12/19 06:04:09;;;;;;;;;;;;;;;5.24;73.68;101886.50;4949771;29;19927;-92
2022/12/19 06:06:34;;;;;;;;;;;;;;;5.32;73.38;101894.69;4948561;29;19919;-90
2022/12/19 06:09:02;;;;;;;;;;;;;;;5.32;73.66;101895.56;4945745;29;20707;-93
2022/12/19 06:11:27;;;;;;;;;;;;;;;5.38;73.07;101895.81;4952588;28;19914;-93
2022/12/19 06:13:58;;;;;;;;;;;;;;;5.23;72.74;101899.53;4953761;29;20382;-94
2022/12/19 06:16:25;;;;;;;;;;;;;;;5.19;73.11;101909.88;4935871;29;19922;-93
2022/12/19 06:18:52;;;;;;;;;;;;;;;5.28;73.20;101908.44;4950767;29;19919;-94
2022/12/19 06:27:23;;;;;;;;;;;;;;;5.23;72.92;101921.34;4891430;29;19970;-91
2022/12/19 06:29:48;;;;;;;;;;;;;;;5.27;72.92;101922.38;4893094;29;19987;-95
2022/12/19 06:32:13;;;;;;;;;;;;;;;5.36;72.23;101922.75;4875627;29;20462;-91
2022/12/19 06:34:39;;;;;;;;;;;;;;;5.36;71.41;101935.84;4891070;29;20085;-91
2022/12/19 06:37:04;;;;;;;;;;;;;;;5.06;71.58;101933.72;4892372;29;19923;-90
2022/12/19 06:39:29;;;;;;;;;;;;;;;5.10;71.82;101930.41;4877369;29;20425;-90
2022/12/19 06:44:38;;;;;;;;;;;;;;;5.07;71.85;101932.88;4908058;29;19978;-94
2022/12/19 06:47:03;;;;;;;;;;;;;;;5.35;73.99;101934.06;4875103;29;20410;-93
2022/12/19 06:49:30;;;;;;;;;;;;;;;5.17;69.04;101937.69;4907803;29;19914;-88
2022/12/19 06:51:55;;;;;;;;;;;;;;;5.16;69.15;101935.91;4903678;29;20611;-91
2022/12/19 06:54:21;;;;;;;;;;;;;;;5.34;70.07;101942.75;4893442;29;19922;-91
2022/12/19 06:56:46;;;;;;;;;;;;;;;5.40;69.54;101947.34;4893249;29;19919;-91
2022/12/19 06:59:13;;;;;;;;;;;;;;;5.41;69.84;101955.25;4895303;29;19958;-91
2022/12/19 07:01:41;;;;;;;;;;;;;;;5.34;69.49;101953.22;4894663;29;19922;-95
2022/12/19 07:04:10;;;;;;;;;;;;;;;5.27;69.64;101962.53;4894742;29;19959;-92
2022/12/19 07:06:35;;;;;;;;;;;;;;;5.30;69.68;101966.97;4894549;29;19969;-89
2022/12/19 07:09:01;;;;;;;;;;;;;;;5.31;68.31;101966.16;4894818;29;19962;-93
2022/12/19 07:11:26;;;;;;;;;;;;;;;5.32;69.75;101966.22;4893861;29;20005;-90
2022/12/19 07:13:52;;;;;;;;;;;;;;;5.35;69.66;101970.72;4894850;29;20002;-93
2022/12/19 07:16:19;;;;;;;;;;;;;;;5.41;69.74;101967.44;4894626;29;19915;-91
2022/12/19 07:18:46;;;;;;;;;;;;;;;5.16;68.55;101969.91;4924407;29;19922;-91
2022/12/19 07:21:11;;;;;;;;;;;;;;;5.25;69.43;101977.28;4931230;29;19944;-88
2022/12/19 07:23:37;;;;;;;;;;;;;;;5.28;69.85;101981.72;4930333;29;19978;-90
2022/12/19 07:26:02;;;;;;;;;;;;;;;5.08;67.96;101984.41;4930913;29;19922;-90
2022/12/19 07:28:28;;;;;;;;;;;;;;;5.20;69.14;101982.31;4932189;29;20300;-91
2022/12/19 07:30:56;;;;;;;;;;;;;;;5.16;69.15;101985.63;4931671;29;19919;-93
2022/12/19 07:33:21;;;;;;;;;;;;;;;5.17;69.27;101990.03;4931281;29;19921;-94
2022/12/19 07:35:47;;;;;;;;;;;;;;;5.41;69.76;101997.16;4931209;29;19918;-92
2022/12/19 07:38:12;;;;;;;;;;;;;;;5.57;69.10;101985.59;4931358;29;19921;-90
2022/12/19 07:40:37;;;;;;;;;;;;;;;5.44;68.34;101989.44;4931470;29;20389;-90
2022/12/19 07:43:04;;;;;;;;;;;;;;;5.30;68.90;101996.69;4931065;29;19919;-94
2022/12/19 07:45:29;;;;;;;;;;;;;;;5.31;68.47;101997.56;4931052;29;19921;-90
2022/12/19 07:47:55;;;;;;;;;;;;;;;5.19;68.71;102004.06;4931136;29;19926;-91
2022/12/19 07:50:21;;;;;;;;;;;;;;;5.38;69.09;102002.25;4932451;29;19914;-92
2022/12/19 07:52:47;;;;;;;;;;;;;;;5.51;68.83;101998.44;4931944;29;19978;-89
2022/12/19 07:55:12;;;;;;;;;;;;;;;5.60;69.79;102006.66;4932260;29;20452;-90
2022/12/19 07:57:37;;;;;;;;;;;;;;;5.64;69.03;102011.22;4931955;29;20309;-89
2022/12/19 08:00:04;;;;;;;;;;;;;;;5.65;69.14;102010.38;4932293;29;20404;-89
2022/12/19 08:02:29;;;;;;;;;;;;;;;5.59;68.30;102014.47;4930576;29;20317;-92
2022/12/19 08:04:55;;;;;;;;;;;;;;;5.47;67.49;102017.44;4932690;29;19926;-94
2022/12/19 08:07:20;;;;;;;;;;;;;;;5.33;67.67;102016.84;4932614;29;20410;-91
2022/12/19 08:09:45;;;;;;;;;;;;;;;5.27;67.96;102019.22;4932445;29;19915;-91
2022/12/19 08:12:11;;;;;;;;;;;;;;;5.28;68.99;102026.22;4930439;29;19918;-91
2022/12/19 08:14:37;;;;;;;;;;;;;;;5.27;68.26;102027.97;4932052;29;20071;-93
2022/12/19 08:17:02;;;;;;;;;;;;;;;5.41;68.01;102039.03;4930898;29;20333;-91
2022/12/19 08:19:28;;;;;;;;;;;;;;;5.49;67.81;102035.00;4930731;29;19930;-95
2022/12/19 08:21:54;;;;;;;;;;;;;;;5.36;68.05;102040.53;4930673;29;20452;-90
2022/12/19 08:24:19;;;;;;;;;;;;;;;5.28;67.99;102041.94;4930727;29;20013;-94
2022/12/19 08:26:44;;;;;;;;;;;;;;;5.41;67.71;102044.25;4931198;29;19970;-92
2022/12/19 08:29:10;;;;;;;;;;;;;;;5.29;67.28;102039.38;4915441;29;20697;-94
2022/12/19 08:31:35;;;;;;;;;;;;;;;5.37;68.14;102040.59;4931909;29;20003;-93
2022/12/19 08:34:01;;;;;;;;;;;;;;;5.56;69.01;102044.94;4932235;29;19962;-93
2022/12/19 08:36:26;;;;;;;;;;;;;;;5.64;68.92;102039.09;4931267;29;19958;-93
2022/12/19 08:38:51;;;;;;;;;;;;;;;5.59;66.78;102041.53;4932202;29;20377;-94
2022/12/19 08:41:17;;;;;;;;;;;;;;;5.73;68.05;102047.34;4938415;29;20453;-94
2022/12/19 08:43:47;;;;;;;;;;;;;;;5.67;66.14;102045.38;4951379;29;19928;-88
2022/12/19 08:46:12;;;;;;;;;;;;;;;5.85;66.82;102050.50;4949444;29;19918;-92
2022/12/19 08:48:38;;;;;;;;;;;;;;;5.91;66.21;102047.25;4948958;29;19977;-91
2022/12/19 08:51:06;;;;;;;;;;;;;;;6.05;66.52;102046.09;4950638;29;19969;-94
2022/12/19 08:53:33;;;;;;;;;;;;;;;6.21;67.44;102049.34;4948507;29;20349;-91
2022/12/19 08:56:01;;;;;;;;;;;;;;;5.79;65.53;102049.34;4949888;29;20352;-91
2022/12/19 08:58:28;;;;;;;;;;;;;;;5.76;67.20;102050.09;4944245;29;20320;-91
2022/12/19 09:00:54;;;;;;;;;;;;;;;5.80;65.47;102046.78;4944856;29;19992;-90
2022/12/19 09:03:21;;;;;;;;;;;;;;;5.43;66.01;102050.44;4933058;29;19918;-89
2022/12/19 09:05:46;;;;;;;;;;;;;;;5.41;67.45;102053.81;4949854;29;20408;-92
2022/12/19 09:08:13;;;;;;;;;;;;;;;5.51;66.75;102045.53;4950672;29;19919;-93
2022/12/19 09:10:38;;;;;;;;;;;;;;;5.32;66.48;102039.50;4950849;29;19915;-91
2022/12/19 09:13:04;;;;;;;;;;;;;;;5.34;66.86;102043.09;4953542;29;19919;-94
2022/12/19 09:15:29;;;;;;;;;;;;;;;5.50;67.13;102047.28;4933697;29;19918;-91
2022/12/19 09:17:55;;;;;;;;;;;;;;;5.36;66.99;102041.44;4932440;29;19950;-90
2022/12/19 09:20:23;;;;;;;;;;;;;;;5.51;67.77;102046.44;4932711;29;20816;-92
2022/12/19 09:22:48;;;;;;;;;;;;;;;5.44;66.36;102043.47;4934929;29;19954;-91
2022/12/19 09:25:15;;;;;;;;;;;;;;;5.36;66.60;102036.22;4944772;29;20015;-93
2022/12/19 09:27:40;;;;;;;;;;;;;;;5.40;66.99;102041.59;4929642;29;19926;-94
2022/12/19 09:30:06;;;;;;;;;;;;;;;5.18;64.55;102035.41;4932267;29;19930;-92
2022/12/19 09:32:31;;;;;;;;;;;;;;;5.41;66.55;102036.41;4949633;29;20028;-92
2022/12/19 09:34:57;;;;;;;;;;;;;;;5.26;65.24;102041.84;4948354;29;20001;-92
2022/12/19 09:37:23;;;;;;;;;;;;;;;5.17;64.46;102041.44;4948496;29;19922;-93
2022/12/19 09:39:48;;;;;;;;;;;;;;;5.28;65.76;102034.97;4948250;29;19914;-95
2022/12/19 09:42:20;;;;;;;;;;;;;;;5.25;64.77;102036.56;4934048;29;19919;-94
2022/12/19 09:45:05;;;;;;;;;;;;;;;5.41;65.68;102032.88;4936113;29;19919;-94
2022/12/19 09:47:31;;;;;;;;;;;;;;;5.29;65.44;102031.53;4957358;29;19926;-95
2022/12/19 09:49:58;;;;;;;;;;;;;;;5.41;66.09;102023.31;4958936;29;19919;-94
2022/12/19 09:52:24;;;;;;;;;;;;;;;5.32;66.27;102025.53;4958585;28;19911;-90
2022/12/19 09:54:55;;;;;;;;;;;;;;;5.38;67.56;102013.59;4956622;29;20345;-92
2022/12/19 09:57:28;;;;;;;;;;;;;;;5.41;66.00;102012.84;4955559;28;20743;-92
2022/12/19 09:59:56;;;;;;;;;;;;;;;5.47;64.71;102009.59;4956688;28;19965;-94
2022/12/19 10:02:24;;;;;;;;;;;;;;;5.47;65.96;102010.50;4951482;28;19918;-94
2022/12/19 10:04:54;;;;;;;;;;;;;;;5.45;66.20;102006.91;4939035;29;19919;-93
2022/12/19 10:07:20;;;;;;;;;;;;;;;5.32;61.81;102005.50;4953035;28;20022;-92
2022/12/19 10:09:47;;;;;;;;;;;;;;;5.31;61.70;102010.66;4950206;29;20005;-95
2022/12/19 10:12:26;;;;;;;;;;;;;;;5.41;61.94;102009.31;4956189;28;19956;-94
2022/12/19 10:14:54;;;;;;;;;;;;;;;5.47;63.13;102013.13;4951850;29;19919;-95
2022/12/19 10:17:37;;;;;;;;;;;;;;;5.43;63.61;102003.34;4952546;28;19944;-93
2022/12/19 10:20:10;;;;;;;;;;;;;;;5.36;65.63;101993.41;4954183;29;19933;-94
2022/12/19 10:22:36;;;;;;;;;;;;;;;5.43;66.84;101989.34;4944961;29;20393;-90
2022/12/19 10:25:05;;;;;;;;;;;;;;;5.42;66.63;101971.84;4954979;28;19977;-90
2022/12/19 10:27:36;;;;;;;;;;;;;;;5.32;66.73;101975.81;4969552;28;19921;-91
2022/12/19 10:30:20;;;;;;;;;;;;;;;5.47;65.93;101970.31;4969480;28;20320;-92
2022/12/19 10:33:00;;;;;;;;;;;;;;;5.31;65.35;101976.63;4954283;29;19925;-95
2022/12/19 10:35:34;;;;;;;;;;;;;;;5.34;65.08;101974.16;4955161;29;19922;-94
2022/12/19 10:38:18;;;;;;;;;;;;;;;5.43;66.33;101971.91;4955710;28;19914;-92
2022/12/19 10:41:12;;;;;;;;;;;;;;;5.48;65.74;101964.25;4956285;29;19918;-92
2022/12/19 10:43:49;;;;;;;;;;;;;;;5.64;65.84;101960.53;4945833;28;19965;-91
2022/12/19 10:46:33;;;;;;;;;;;;;;;5.44;61.50;101962.34;4955174;28;19945;-94
2022/12/19 10:48:59;;;;;;;;;;;;;;;5.34;63.04;101953.22;4970425;28;19918;-92
2022/12/19 10:51:26;;;;;;;;;;;;;;;5.34;62.11;101951.47;4955476;29;20332;-93
2022/12/19 10:53:53;;;;;;;;;;;;;;;5.28;61.24;101947.72;4954406;29;19915;-94
2022/12/19 10:56:23;;;;;;;;;;;;;;;5.44;62.50;101952.78;4953589;28;19918;-92
2022/12/19 10:58:53;;;;;;;;;;;;;;;5.33;60.74;101943.56;4951382;29;20429;-92
2022/12/19 11:01:36;;;;;;;;;;;;;;;5.32;58.80;101955.75;4950874;29;19917;-95
2022/12/19 11:04:26;;;;;;;;;;;;;;;5.39;60.73;101956.91;4950971;29;20089;-94
2022/12/19 11:07:01;;;;;;;;;;;;;;;5.71;60.74;101949.50;4952425;29;19910;-92
2022/12/19 11:09:44;;;;;;;;;;;;;;;5.71;60.75;101954.75;4967679;28;19914;-93
2022/12/19 11:12:17;;;;;;;;;;;;;;;5.74;60.83;101954.88;4952848;29;19915;-93
2022/12/19 11:14:50;;;;;;;;;;;;;;;5.77;61.10;101952.38;4951592;29;20330;-93
2022/12/19 11:17:35;;;;;;;;;;;;;;;5.60;60.32;101946.44;4952182;29;19918;-94
2022/12/19 11:20:32;;;;;;;;;;;;;;;5.54;60.12;101951.44;4951096;28;19968;-94
2022/12/19 11:23:01;;;;;;;;;;;;;;;5.47;60.02;101946.75;4929663;29;19919;-91
2022/12/19 11:25:39;;;;;;;;;;;;;;;5.68;61.16;101944.13;4952950;29;19954;-93
2022/12/19 11:28:19;;;;;;;;;;;;;;;5.57;59.58;101943.69;4951440;29;19914;-93
2022/12/19 11:30:53;;;;;;;;;;;;;;;5.50;59.66;101939.94;4966794;28;20482;-94
2022/12/19 11:33:20;;;;;;;;;;;;;;;5.72;61.33;101939.09;4952669;29;19970;-91
2022/12/19 11:35:45;;;;;;;;;;;;;;;5.47;59.86;101939.81;4953146;29;19922;-92
2022/12/19 11:38:13;;;;;;;;;;;;;;;5.58;57.86;101942.88;4952591;29;19926;-92
2022/12/19 11:40:43;;;;;;;;;;;;;;;5.84;58.50;101929.94;4951751;29;19918;-92
2022/12/19 11:43:38;;;;;;;;;;;;;;;5.53;58.64;101931.31;4952292;28;19925;-90
2022/12/19 11:46:30;;;;;;;;;;;;;;;5.50;55.99;101933.78;4948708;28;19918;-93
2022/12/19 11:49:08;;;;;;;;;;;;;;;5.40;55.57;101929.03;4945592;29;20013;-93
2022/12/19 11:51:39;;;;;;;;;;;;;;;5.31;52.90;101926.91;4948767;29;20378;-92
2022/12/19 11:54:13;;;;;;;;;;;;;;;5.45;53.25;101933.59;4950389;29;20386;-92
2022/12/19 11:56:39;;;;;;;;;;;;;;;5.33;52.78;101923.53;4967428;28;19919;-92
2022/12/19 11:59:24;;;;;;;;;;;;;;;5.30;52.68;101933.88;4950480;29;19921;-95
2022/12/19 12:01:53;;;;;;;;;;;;;;;5.35;53.36;101931.44;4943236;29;19922;-91
2022/12/19 12:04:36;;;;;;;;;;;;;;;5.15;53.11;101925.38;4952082;29;19946;-90
2022/12/19 12:07:03;;;;;;;;;;;;;;;5.41;54.15;101929.09;4951810;29;19922;-89
2022/12/19 12:09:31;;;;;;;;;;;;;;;5.32;52.01;101929.59;4950196;28;20012;-89
2022/12/19 12:12:17;;;;;;;;;;;;;;;5.48;53.71;101923.25;4951527;29;19924;-94
2022/12/19 12:14:50;;;;;;;;;;;;;;;5.36;53.13;101931.50;4949438;29;20448;-89
2022/12/19 12:17:33;;;;;;;;;;;;;;;5.13;51.35;101927.03;4950845;29;19926;-91
2022/12/19 12:20:02;;;;;;;;;;;;;;;5.08;52.39;101921.59;4966105;28;19949;-93
2022/12/19 12:22:33;;;;;;;;;;;;;;;5.20;51.73;101929.06;4951001;29;19919;-90
2022/12/19 12:25:01;;;;;;;;;;;;;;;5.04;50.46;101931.88;4950756;29;19973;-94
2022/12/19 12:27:41;;;;;;;;;;;;;;;5.00;49.78;101942.22;4956022;29;19925;-93
2022/12/19 12:30:15;;;;;;;;;;;;;;;5.21;51.49;101938.72;4965817;28;19914;-94
2022/12/19 12:32:59;;;;;;;;;;;;;;;4.90;50.64;101936.50;4949598;29;19921;-93
2022/12/19 12:35:27;;;;;;;;;;;;;;;4.87;51.41;101944.22;4965099;28;19919;-92
2022/12/19 12:38:12;;;;;;;;;;;;;;;4.91;53.10;101938.28;4965777;28;19941;-93
2022/12/19 12:40:52;;;;;;;;;;;;;;;5.00;52.70;101941.28;4950718;29;19920;-93
2022/12/19 12:43:18;;;;;;;;;;;;;;;4.82;51.92;101939.66;4950164;29;19945;-94
2022/12/19 12:45:44;;;;;;;;;;;;;;;4.92;51.27;101945.31;4965600;28;19918;-93
2022/12/19 12:48:12;;;;;;;;;;;;;;;4.83;50.88;101951.94;4965362;28;19978;-91
2022/12/19 12:50:40;;;;;;;;;;;;;;;4.89;52.08;101947.78;4965353;28;19918;-92
2022/12/19 12:53:06;;;;;;;;;;;;;;;4.79;51.47;101947.38;4949366;29;20024;-93
2022/12/19 12:55:40;;;;;;;;;;;;;;;4.96;52.88;101949.84;4948552;29;19925;-92
2022/12/19 12:58:25;;;;;;;;;;;;;;;4.88;52.30;101959.06;4949983;29;20039;-87
2022/12/19 13:01:20;;;;;;;;;;;;;;;4.86;53.02;101955.50;4948254;29;19918;-92
2022/12/19 13:03:53;;;;;;;;;;;;;;;4.65;51.63;101957.22;4940631;29;19922;-93
2022/12/19 13:06:22;;;;;;;;;;;;;;;4.68;53.71;101955.56;4948916;29;19939;-92
2022/12/19 13:14:43;;;;;;;;;;;;;;;5.01;53.63;101962.28;4950411;29;19926;-93
2022/12/19 13:17:11;;;;;;;;;;;;;;;4.84;54.44;101964.16;4950205;29;19914;-91
2022/12/19 13:19:38;;;;;;;;;;;;;;;4.88;54.42;101970.44;4965063;28;19918;-93
2022/12/19 13:22:03;;;;;;;;;;;;;;;4.93;52.50;101974.13;4968661;28;19961;-91
2022/12/19 13:24:40;;;;;;;;;;;;;;;4.72;53.44;101981.03;4969904;28;19953;-90
2022/12/19 13:27:18;;;;;;;;;;;;;;;4.77;53.63;101983.03;4972037;28;19918;-93
2022/12/19 13:29:53;;;;;;;;;;;;;;;4.64;54.10;101985.91;4970144;28;19949;-95
2022/12/19 13:32:19;;;;;;;;;;;;;;;4.85;54.81;101991.22;4970587;28;19918;-93
2022/12/19 13:35:20;;;;;;;;;;;;;;;4.85;54.73;101991.22;4956049;28;19973;-95
2022/12/19 13:37:50;;;;;;;;;;;;;;;4.62;53.47;101987.56;4952636;28;19914;-93